createdAt,value
2019-02-08T00:01:00.573Z,38.26
2019-02-08T00:02:00.852Z,38.28
2019-02-08T00:02:59.941Z,38.28
2019-02-08T00:03:59.919Z,38.27
2019-02-08T00:04:59.709Z,38.25
2019-02-08T00:05:59.900Z,38.25
2019-02-08T00:07:00.717Z,38.32
2019-02-08T00:07:59.786Z,38.28
2019-02-08T00:08:59.880Z,38.24
2019-02-08T00:09:59.728Z,38.23
2019-02-08T00:10:59.909Z,38.25
2019-02-08T00:11:59.877Z,38.25
2019-02-08T00:12:59.738Z,38.23
2019-02-08T00:14:00.149Z,38.23
2019-02-08T00:15:00.014Z,38.23
2019-02-08T00:16:00.243Z,38.25
2019-02-08T00:16:59.917Z,38.26
2019-02-08T00:17:59.730Z,38.26
2019-02-08T00:18:59.749Z,38.25
2019-02-08T00:19:59.889Z,38.27
2019-02-08T00:21:00.088Z,38.27
2019-02-08T00:22:00.210Z,38.31
2019-02-08T00:23:00.186Z,38.27
2019-02-08T00:23:59.870Z,38.28
2019-02-08T00:25:00.546Z,38.26
2019-02-08T00:26:00.697Z,38.25
2019-02-08T00:26:59.716Z,38.23
2019-02-08T00:27:59.837Z,38.23
2019-02-08T00:28:59.853Z,38.29
2019-02-08T00:29:59.743Z,38.28
2019-02-08T00:30:59.446Z,38.27
2019-02-08T00:31:59.984Z,38.28
2019-02-08T00:32:59.948Z,38.33
2019-02-08T00:33:59.786Z,38.26
2019-02-08T00:35:01.140Z,38.28
2019-02-08T00:36:00.065Z,38.33
2019-02-08T00:37:00.211Z,38.29
2019-02-08T00:38:00.408Z,38.33
2019-02-08T00:38:59.819Z,38.33
2019-02-08T00:39:59.867Z,38.31
2019-02-08T00:40:59.728Z,38.3
2019-02-08T00:42:00.293Z,38.3
2019-02-08T00:43:00.017Z,38.28
2019-02-08T00:44:01.239Z,38.3
2019-02-08T00:44:59.717Z,38.32
2019-02-08T00:45:59.969Z,38.34
2019-02-08T00:47:00.744Z,38.33
2019-02-08T00:47:59.744Z,38.31
2019-02-08T00:49:00.387Z,38.33
2019-02-08T00:49:59.667Z,38.31
2019-02-08T00:50:59.977Z,38.32
2019-02-08T00:52:00.216Z,38.3
2019-02-08T00:53:00.013Z,38.32
2019-02-08T00:54:01.123Z,38.33
2019-02-08T00:54:59.680Z,38.34
2019-02-08T00:55:59.772Z,38.35
2019-02-08T00:56:59.786Z,38.33
2019-02-08T00:58:00.418Z,38.34
2019-02-08T00:59:00.265Z,38.33
2019-02-08T00:59:59.934Z,38.34
2019-02-08T01:00:59.731Z,38.32
2019-02-08T01:02:00.222Z,38.33
2019-02-08T01:02:59.459Z,38.32
2019-02-08T01:03:59.910Z,38.33
2019-02-08T01:04:59.708Z,38.35
2019-02-08T01:05:59.610Z,38.37
2019-02-08T01:07:00.120Z,38.32
2019-02-08T01:08:01.235Z,38.34
2019-02-08T01:09:00.194Z,38.34
2019-02-08T01:10:00.872Z,38.34
2019-02-08T01:11:00.679Z,38.37
2019-02-08T01:12:00.105Z,38.34
2019-02-08T01:13:00.120Z,38.32
2019-02-08T01:14:00.271Z,38.35
2019-02-08T01:15:00.394Z,38.34
2019-02-08T01:15:59.862Z,38.34
2019-02-08T01:17:00.641Z,38.36
2019-02-08T01:18:00.081Z,38.39
2019-02-08T01:19:00.266Z,38.37
2019-02-08T01:19:59.900Z,38.36
2019-02-08T01:20:59.981Z,38.37
2019-02-08T01:21:59.768Z,38.36
2019-02-08T01:22:59.901Z,38.38
2019-02-08T01:24:00.498Z,38.36
2019-02-08T01:24:59.898Z,38.37
2019-02-08T01:26:00.104Z,38.36
2019-02-08T01:27:00.486Z,38.37
2019-02-08T01:28:00.246Z,38.36
2019-02-08T01:29:00.229Z,38.36
2019-02-08T01:30:00.285Z,38.4
2019-02-08T01:31:00.098Z,38.35
2019-02-08T01:31:59.864Z,38.37
2019-02-08T01:32:59.611Z,38.4
2019-02-08T01:34:00.712Z,38.38
2019-02-08T01:34:59.888Z,38.37
2019-02-08T01:35:59.665Z,38.39
2019-02-08T01:36:59.979Z,38.39
2019-02-08T01:37:59.894Z,38.37
2019-02-08T01:39:00.302Z,38.37
2019-02-08T01:40:01.527Z,38.38
2019-02-08T01:41:01.668Z,38.38
2019-02-08T01:42:00.209Z,38.39
2019-02-08T01:43:00.123Z,38.39
2019-02-08T01:43:59.725Z,38.36
2019-02-08T01:44:59.767Z,38.39
2019-02-08T01:45:59.686Z,38.38
2019-02-08T01:46:59.842Z,38.38
2019-02-08T01:47:59.833Z,38.41
2019-02-08T01:48:59.958Z,38.39
2019-02-08T01:49:59.812Z,38.39
2019-02-08T01:50:59.975Z,38.4
2019-02-08T01:51:59.987Z,38.36
2019-02-08T01:52:59.588Z,38.38
2019-02-08T01:53:59.899Z,38.4
2019-02-08T01:54:59.767Z,38.39
2019-02-08T01:55:59.814Z,38.39
2019-02-08T01:56:59.834Z,38.37
2019-02-08T01:57:59.787Z,38.41
2019-02-08T01:58:59.831Z,38.42
2019-02-08T01:59:59.733Z,38.4
2019-02-08T02:00:59.607Z,38.42
2019-02-08T02:01:59.702Z,38.4
2019-02-08T02:03:00.069Z,38.42
2019-02-08T02:03:59.964Z,38.4
2019-02-08T02:04:59.969Z,38.4
2019-02-08T02:05:59.705Z,38.4
2019-02-08T02:06:59.627Z,38.41
2019-02-08T02:08:00.035Z,38.4
2019-02-08T02:08:59.794Z,38.38
2019-02-08T02:09:59.672Z,38.4
2019-02-08T02:11:00.210Z,38.39
2019-02-08T02:11:59.930Z,38.43
2019-02-08T02:12:59.558Z,38.4
2019-02-08T02:13:59.790Z,38.43
2019-02-08T02:15:00.403Z,38.44
2019-02-08T02:16:00.165Z,38.41
2019-02-08T02:16:59.905Z,38.47
2019-02-08T02:18:00.280Z,38.45
2019-02-08T02:18:59.668Z,38.44
2019-02-08T02:20:00.847Z,38.46
2019-02-08T02:20:59.392Z,38.46
2019-02-08T02:22:00.505Z,38.46
2019-02-08T02:22:59.585Z,38.44
2019-02-08T02:24:00.246Z,38.41
2019-02-08T02:24:59.910Z,38.45
2019-02-08T02:26:00.222Z,38.47
2019-02-08T02:26:59.625Z,38.46
2019-02-08T02:27:59.538Z,38.44
2019-02-08T02:29:00.453Z,38.45
2019-02-08T02:29:59.782Z,38.43
2019-02-08T02:30:59.965Z,38.41
2019-02-08T02:31:59.872Z,38.45
2019-02-08T02:33:00.876Z,38.44
2019-02-08T02:33:59.732Z,38.42
2019-02-08T02:34:59.713Z,38.46
2019-02-08T02:36:00.813Z,38.44
2019-02-08T02:37:00.301Z,38.44
2019-02-08T02:37:59.806Z,38.46
2019-02-08T02:38:59.674Z,38.44
2019-02-08T02:39:59.898Z,38.46
2019-02-08T02:41:01.478Z,38.43
2019-02-08T02:42:00.017Z,38.4
2019-02-08T02:42:59.926Z,38.42
2019-02-08T02:44:00.607Z,38.42
2019-02-08T02:45:00.058Z,38.46
2019-02-08T02:45:59.657Z,38.45
2019-02-08T02:47:00.290Z,38.42
2019-02-08T02:47:59.741Z,38.49
2019-02-08T02:48:59.783Z,38.48
2019-02-08T02:50:00.307Z,38.46
2019-02-08T02:51:00.207Z,38.46
2019-02-08T02:51:59.393Z,38.51
2019-02-08T02:53:00.021Z,38.47
2019-02-08T02:54:05.232Z,38.47
2019-02-08T02:54:59.714Z,38.45
2019-02-08T02:55:59.928Z,38.48
2019-02-08T02:56:59.709Z,38.47
2019-02-08T02:57:59.611Z,38.49
2019-02-08T02:58:59.805Z,38.51
2019-02-08T02:59:59.765Z,38.46
2019-02-08T03:01:00.330Z,38.5
2019-02-08T03:01:59.731Z,38.5
2019-02-08T03:03:00.104Z,38.47
2019-02-08T03:04:00.205Z,38.5
2019-02-08T03:04:59.759Z,38.49
2019-02-08T03:05:59.447Z,38.47
2019-02-08T03:07:00.013Z,38.46
2019-02-08T03:08:00.233Z,38.49
2019-02-08T03:08:59.509Z,38.48
2019-02-08T03:10:00.057Z,38.47
2019-02-08T03:11:01.391Z,38.5
2019-02-08T03:11:59.947Z,38.45
2019-02-08T03:13:00.255Z,38.47
2019-02-08T03:13:59.950Z,38.51
2019-02-08T03:14:59.975Z,38.53
2019-02-08T03:15:59.673Z,38.49
2019-02-08T03:16:59.976Z,38.52
2019-02-08T03:18:00.005Z,38.51
2019-02-08T03:18:59.696Z,38.52
2019-02-08T03:19:59.834Z,38.53
2019-02-08T03:20:59.950Z,38.52
2019-02-08T03:21:59.629Z,38.51
2019-02-08T03:23:00.129Z,38.52
2019-02-08T03:23:59.792Z,38.48
2019-02-08T03:24:59.733Z,38.52
2019-02-08T03:25:59.697Z,38.47
2019-02-08T03:27:01.640Z,38.54
2019-02-08T03:27:59.736Z,38.51
2019-02-08T03:28:59.819Z,38.53
2019-02-08T03:29:59.767Z,38.53
2019-02-08T03:30:59.965Z,38.53
2019-02-08T03:31:59.855Z,38.55
2019-02-08T03:32:59.403Z,38.58
2019-02-08T03:33:59.892Z,38.57
2019-02-08T03:34:59.811Z,38.53
2019-02-08T03:36:01.474Z,38.56
2019-02-08T03:36:59.883Z,38.57
2019-02-08T03:37:59.917Z,38.56
2019-02-08T03:38:59.801Z,38.53
2019-02-08T03:40:00.293Z,38.52
2019-02-08T03:40:59.941Z,38.56
2019-02-08T03:41:59.990Z,38.54
2019-02-08T03:42:59.801Z,38.56
2019-02-08T03:43:59.762Z,38.54
2019-02-08T03:44:59.718Z,38.56
2019-02-08T03:45:59.930Z,38.54
2019-02-08T03:47:00.090Z,38.54
2019-02-08T03:48:00.009Z,38.54
2019-02-08T03:49:00.325Z,38.55
2019-02-08T03:49:59.510Z,38.54
2019-02-08T03:51:01.530Z,38.55
2019-02-08T03:51:59.720Z,38.56
2019-02-08T03:52:59.911Z,38.55
2019-02-08T03:53:59.792Z,38.57
2019-02-08T03:54:59.945Z,38.54
2019-02-08T03:55:59.951Z,38.58
2019-02-08T03:56:59.619Z,38.54
2019-02-08T03:57:59.981Z,38.56
2019-02-08T03:59:00.617Z,38.56
2019-02-08T04:00:00.251Z,38.57
2019-02-08T04:01:00.308Z,38.57
2019-02-08T04:02:00.301Z,38.6
2019-02-08T04:02:59.746Z,38.61
2019-02-08T04:04:00.003Z,38.56
2019-02-08T04:04:59.637Z,38.6
2019-02-08T04:06:00.015Z,38.62
2019-02-08T04:07:00.282Z,38.6
2019-02-08T04:08:00.149Z,38.62
2019-02-08T04:09:00.009Z,38.58
2019-02-08T04:09:59.702Z,38.58
2019-02-08T04:11:00.166Z,38.56
2019-02-08T04:12:00.168Z,38.58
2019-02-08T04:12:59.731Z,38.6
2019-02-08T04:13:59.659Z,38.59
2019-02-08T04:15:01.509Z,38.6
2019-02-08T04:15:59.991Z,38.58
2019-02-08T04:16:59.996Z,38.58
2019-02-08T04:17:59.706Z,38.6
2019-02-08T04:18:59.510Z,38.59
2019-02-08T04:19:59.524Z,38.58
2019-02-08T04:20:59.867Z,38.6
2019-02-08T04:21:59.747Z,38.57
2019-02-08T04:23:00.248Z,38.6
2019-02-08T04:23:59.659Z,38.61
2019-02-08T04:24:59.812Z,38.61
2019-02-08T04:25:59.898Z,38.59
2019-02-08T04:26:59.562Z,38.62
2019-02-08T04:28:00.282Z,38.65
2019-02-08T04:29:00.491Z,38.62
2019-02-08T04:29:59.800Z,38.62
2019-02-08T04:30:59.906Z,38.64
2019-02-08T04:31:59.987Z,38.6
2019-02-08T04:33:01.249Z,38.59
2019-02-08T04:33:59.713Z,38.6
2019-02-08T04:35:00.028Z,38.63
2019-02-08T04:35:59.487Z,38.62
2019-02-08T04:37:00.041Z,38.66
2019-02-08T04:38:00.050Z,38.65
2019-02-08T04:38:59.822Z,38.61
2019-02-08T04:40:00.310Z,38.66
2019-02-08T04:41:01.371Z,38.66
2019-02-08T04:42:00.235Z,38.61
2019-02-08T04:43:00.054Z,38.63
2019-02-08T04:44:00.003Z,38.6
2019-02-08T04:44:59.638Z,38.62
2019-02-08T04:45:59.866Z,38.62
2019-02-08T04:47:01.444Z,38.63
2019-02-08T04:47:59.728Z,38.63
2019-02-08T04:48:59.443Z,38.65
2019-02-08T04:49:59.989Z,38.64
2019-02-08T04:50:59.782Z,38.62
2019-02-08T04:51:59.833Z,38.66
2019-02-08T04:53:00.150Z,38.66
2019-02-08T04:54:01.548Z,38.6
2019-02-08T04:54:59.608Z,38.58
2019-02-08T04:55:59.754Z,38.57
2019-02-08T04:56:59.785Z,38.55
2019-02-08T04:58:00.000Z,38.55
2019-02-08T04:58:59.718Z,38.54
2019-02-08T05:00:01.410Z,38.55
2019-02-08T05:01:00.612Z,38.52
2019-02-08T05:02:00.356Z,38.51
2019-02-08T05:02:59.918Z,38.53
2019-02-08T05:04:00.248Z,38.55
2019-02-08T05:04:59.731Z,38.58
2019-02-08T05:05:59.946Z,38.58
2019-02-08T05:06:59.643Z,38.56
2019-02-08T05:07:59.861Z,38.58
2019-02-08T05:08:59.854Z,38.57
2019-02-08T05:10:00.068Z,38.54
2019-02-08T05:10:59.776Z,38.53
2019-02-08T05:11:59.789Z,38.58
2019-02-08T05:12:59.524Z,38.56
2019-02-08T05:13:59.900Z,38.57
2019-02-08T05:14:59.889Z,38.57
2019-02-08T05:15:59.739Z,38.52
2019-02-08T05:16:59.938Z,38.57
2019-02-08T05:18:01.564Z,38.54
2019-02-08T05:18:59.582Z,38.52
2019-02-08T05:19:59.937Z,38.52
2019-02-08T05:20:59.835Z,38.5
2019-02-08T05:21:59.754Z,38.47
2019-02-08T05:23:00.381Z,38.46
2019-02-08T05:23:59.855Z,38.48
2019-02-08T05:24:59.721Z,38.46
2019-02-08T05:25:59.928Z,38.48
2019-02-08T05:26:59.386Z,38.47
2019-02-08T05:27:59.884Z,38.48
2019-02-08T05:29:01.373Z,38.44
2019-02-08T05:29:59.597Z,38.38
2019-02-08T05:30:59.926Z,38.43
2019-02-08T05:31:59.766Z,38.46
2019-02-08T05:33:00.070Z,38.42
2019-02-08T05:33:59.647Z,38.44
2019-02-08T05:35:00.585Z,38.43
2019-02-08T05:35:59.488Z,38.44
2019-02-08T05:37:01.485Z,38.46
2019-02-08T05:37:59.543Z,38.42
2019-02-08T05:39:00.051Z,38.46
2019-02-08T05:39:59.680Z,38.45
2019-02-08T05:41:01.369Z,38.47
2019-02-08T05:41:59.820Z,38.4
2019-02-08T05:42:59.686Z,38.46
2019-02-08T05:43:59.698Z,38.45
2019-02-08T05:44:59.614Z,38.47
2019-02-08T05:45:59.908Z,38.4
2019-02-08T05:46:59.445Z,38.43
2019-02-08T05:47:59.946Z,38.45
2019-02-08T05:49:00.037Z,38.42
2019-02-08T05:50:00.530Z,38.48
2019-02-08T05:50:59.807Z,38.47
2019-02-08T05:51:59.884Z,38.43
2019-02-08T05:52:59.791Z,38.44
2019-02-08T05:53:59.673Z,38.4
2019-02-08T05:54:59.603Z,38.43
2019-02-08T05:55:59.910Z,38.41
2019-02-08T05:56:59.833Z,38.43
2019-02-08T05:57:59.516Z,38.42
2019-02-08T05:59:01.090Z,38.45
2019-02-08T06:00:00.268Z,38.4
2019-02-08T06:01:01.274Z,38.44
2019-02-08T06:02:00.050Z,38.42
2019-02-08T06:02:59.723Z,38.42
2019-02-08T06:03:59.853Z,38.4
2019-02-08T06:04:59.612Z,38.41
2019-02-08T06:05:59.807Z,38.42
2019-02-08T06:06:59.552Z,38.39
2019-02-08T06:08:00.226Z,38.4
2019-02-08T06:08:59.445Z,38.4
2019-02-08T06:09:59.881Z,38.39
2019-02-08T06:10:59.950Z,38.39
2019-02-08T06:11:59.665Z,38.39
2019-02-08T06:12:59.998Z,38.4
2019-02-08T06:14:00.225Z,38.38
2019-02-08T06:14:59.970Z,38.4
2019-02-08T06:15:59.753Z,38.4
2019-02-08T06:17:00.658Z,38.44
2019-02-08T06:17:59.557Z,38.38
2019-02-08T06:19:00.215Z,38.41
2019-02-08T06:20:00.058Z,38.41
2019-02-08T06:20:59.818Z,38.39
2019-02-08T06:21:59.992Z,38.42
2019-02-08T06:22:59.687Z,38.42
2019-02-08T06:23:59.696Z,38.4
2019-02-08T06:25:04.589Z,38.39
2019-02-08T06:25:59.725Z,38.4
2019-02-08T06:27:00.025Z,38.36
2019-02-08T06:28:00.240Z,38.38
2019-02-08T06:29:00.031Z,38.38
2019-02-08T06:30:00.418Z,38.38
2019-02-08T06:31:00.577Z,38.38
2019-02-08T06:31:59.641Z,38.38
2019-02-08T06:32:59.930Z,38.41
2019-02-08T06:33:59.709Z,38.39
2019-02-08T06:35:00.106Z,38.38
2019-02-08T06:35:59.866Z,38.38
2019-02-08T06:36:59.782Z,38.39
2019-02-08T06:38:00.146Z,38.39
2019-02-08T06:38:59.409Z,38.39
2019-02-08T06:40:00.399Z,38.39
2019-02-08T06:40:59.431Z,38.4
2019-02-08T06:41:59.568Z,38.4
2019-02-08T06:42:59.757Z,38.42
2019-02-08T06:44:00.464Z,38.42
2019-02-08T06:44:59.811Z,38.42
2019-02-08T06:45:59.735Z,38.43
2019-02-08T06:46:59.493Z,38.4
2019-02-08T06:47:59.975Z,38.44
2019-02-08T06:49:00.358Z,38.44
2019-02-08T06:49:59.866Z,38.44
2019-02-08T06:50:59.981Z,38.43
2019-02-08T06:51:59.368Z,38.45
2019-02-08T06:52:59.476Z,38.46
2019-02-08T06:53:59.764Z,38.45
2019-02-08T06:54:59.795Z,38.48
2019-02-08T06:55:59.822Z,38.43
2019-02-08T06:56:59.452Z,38.47
2019-02-08T06:57:59.711Z,38.47
2019-02-08T06:58:59.754Z,38.45
2019-02-08T06:59:59.626Z,38.45
2019-02-08T07:00:59.625Z,38.46
2019-02-08T07:01:59.829Z,38.46
2019-02-08T07:02:59.699Z,38.46
2019-02-08T07:04:01.415Z,38.48
2019-02-08T07:04:59.634Z,38.47
2019-02-08T07:05:59.826Z,38.46
2019-02-08T07:06:59.664Z,38.46
2019-02-08T07:08:00.170Z,38.44
2019-02-08T07:09:00.167Z,38.48
2019-02-08T07:09:59.856Z,38.47
2019-02-08T07:10:59.890Z,38.48
2019-02-08T07:11:59.330Z,38.45
2019-02-08T07:13:00.042Z,38.49
2019-02-08T07:14:01.334Z,38.45
2019-02-08T07:14:59.425Z,38.48
2019-02-08T07:15:59.488Z,38.46
2019-02-08T07:17:00.675Z,38.46
2019-02-08T07:17:59.428Z,38.47
2019-02-08T07:18:59.758Z,38.46
2019-02-08T07:20:00.273Z,38.47
2019-02-08T07:20:59.958Z,38.45
2019-02-08T07:22:00.095Z,38.48
2019-02-08T07:22:59.546Z,38.47
2019-02-08T07:24:00.119Z,38.46
2019-02-08T07:24:59.921Z,38.47
2019-02-08T07:26:00.733Z,38.44
2019-02-08T07:27:00.252Z,38.42
2019-02-08T07:27:59.727Z,38.44
2019-02-08T07:28:59.932Z,38.44
2019-02-08T07:29:59.998Z,38.44
2019-02-08T07:30:59.882Z,38.43
2019-02-08T07:32:00.370Z,38.42
2019-02-08T07:32:59.962Z,38.42
2019-02-08T07:33:59.463Z,38.43
2019-02-08T07:34:59.941Z,38.45
2019-02-08T07:35:59.992Z,38.45
2019-02-08T07:36:59.801Z,38.43
2019-02-08T07:38:01.519Z,38.43
2019-02-08T07:38:59.450Z,38.42
2019-02-08T07:40:00.032Z,38.43
2019-02-08T07:40:59.287Z,38.4
2019-02-08T07:41:59.601Z,38.43
2019-02-08T07:43:00.944Z,38.42
2019-02-08T07:44:01.304Z,38.45
2019-02-08T07:44:59.953Z,38.43
2019-02-08T07:45:59.450Z,38.46
2019-02-08T07:46:59.659Z,38.44
2019-02-08T07:48:00.087Z,38.44
2019-02-08T07:49:01.492Z,38.44
2019-02-08T07:49:59.990Z,38.44
2019-02-08T07:50:59.475Z,38.46
2019-02-08T07:51:59.997Z,38.42
2019-02-08T07:53:00.401Z,38.44
2019-02-08T07:53:59.906Z,38.44
2019-02-08T07:55:01.292Z,38.42
2019-02-08T07:55:59.948Z,38.43
2019-02-08T07:57:00.256Z,38.45
2019-02-08T07:57:59.726Z,38.43
2019-02-08T07:58:59.734Z,38.44
2019-02-08T07:59:59.646Z,38.45
2019-02-08T08:00:59.598Z,38.41
2019-02-08T08:01:59.527Z,38.41
2019-02-08T08:02:59.983Z,38.42
2019-02-08T08:04:01.810Z,38.42
2019-02-08T08:04:59.388Z,38.41
2019-02-08T08:05:59.740Z,38.4
2019-02-08T08:06:59.685Z,38.41
2019-02-08T08:08:00.571Z,38.39
2019-02-08T08:08:59.454Z,38.4
2019-02-08T08:09:59.828Z,38.39
2019-02-08T08:10:59.673Z,38.39
2019-02-08T08:11:59.445Z,38.37
2019-02-08T08:12:59.839Z,38.36
2019-02-08T08:13:59.435Z,38.38
2019-02-08T08:14:59.303Z,38.36
2019-02-08T08:16:00.004Z,38.33
2019-02-08T08:16:59.885Z,38.36
2019-02-08T08:18:00.293Z,38.36
2019-02-08T08:19:00.102Z,38.35
2019-02-08T08:19:59.919Z,38.36
2019-02-08T08:20:59.806Z,38.34
2019-02-08T08:22:00.113Z,38.36
2019-02-08T08:22:59.821Z,38.34
2019-02-08T08:23:59.845Z,38.35
2019-02-08T08:24:59.932Z,38.35
2019-02-08T08:25:59.641Z,38.33
2019-02-08T08:26:59.426Z,38.31
2019-02-08T08:27:59.956Z,38.32
2019-02-08T08:28:59.956Z,38.33
2019-02-08T08:29:59.418Z,38.34
2019-02-08T08:30:59.986Z,38.33
2019-02-08T08:31:59.482Z,38.33
2019-02-08T08:32:59.999Z,38.33
2019-02-08T08:33:59.593Z,38.34
2019-02-08T08:34:59.902Z,38.34
2019-02-08T08:35:59.969Z,38.33
2019-02-08T08:36:59.506Z,38.3
2019-02-08T08:37:59.743Z,38.31
2019-02-08T08:38:59.837Z,38.32
2019-02-08T08:39:59.532Z,38.3
2019-02-08T08:40:59.837Z,38.31
2019-02-08T08:41:59.895Z,38.32
2019-02-08T08:42:59.970Z,38.35
2019-02-08T08:44:00.065Z,38.29
2019-02-08T08:44:59.920Z,38.31
2019-02-08T08:45:59.491Z,38.36
2019-02-08T08:46:59.928Z,38.35
2019-02-08T08:47:59.696Z,38.34
2019-02-08T08:49:00.000Z,38.34
2019-02-08T08:49:59.903Z,38.35
2019-02-08T08:50:59.721Z,38.32
2019-02-08T08:51:59.727Z,38.33
2019-02-08T08:52:59.743Z,38.34
2019-02-08T08:53:59.564Z,38.3
2019-02-08T08:54:59.735Z,38.34
2019-02-08T08:55:59.625Z,38.3
2019-02-08T08:56:59.393Z,38.27
2019-02-08T08:57:59.989Z,38.27
2019-02-08T08:58:59.769Z,38.27
2019-02-08T08:59:59.481Z,38.25
2019-02-08T09:00:59.999Z,38.26
2019-02-08T09:01:59.822Z,38.27
2019-02-08T09:03:00.145Z,38.22
2019-02-08T09:03:59.393Z,38.22
2019-02-08T09:04:59.427Z,38.89
2019-02-08T09:05:59.528Z,38.71
2019-02-08T09:07:00.118Z,38.56
2019-02-08T09:08:00.336Z,38.46
2019-02-08T09:08:59.416Z,38.43
2019-02-08T09:09:59.739Z,38.35
2019-02-08T09:11:00.106Z,38.42
2019-02-08T09:11:59.327Z,38.98
2019-02-08T09:12:59.685Z,39.21
2019-02-08T09:13:59.861Z,39.3
2019-02-08T09:14:59.421Z,39.33
2019-02-08T09:15:59.884Z,39.2
2019-02-08T09:16:59.407Z,39.18
2019-02-08T09:17:59.493Z,39.05
2019-02-08T09:18:59.634Z,39.07
2019-02-08T09:19:59.599Z,38.98
2019-02-08T09:20:59.833Z,39.13
2019-02-08T09:21:59.615Z,39.02
2019-02-08T09:22:59.736Z,39.02
2019-02-08T09:23:59.398Z,38.91
2019-02-08T09:24:59.374Z,38.92
2019-02-08T09:25:59.872Z,38.9
2019-02-08T09:26:59.772Z,39.23
2019-02-08T09:28:00.627Z,39.68
2019-02-08T09:28:59.267Z,39.04
2019-02-08T09:30:00.204Z,38.91
2019-02-08T09:30:59.844Z,38.91
2019-02-08T09:31:59.792Z,38.75
2019-02-08T09:32:59.776Z,38.75
2019-02-08T09:33:59.314Z,38.9
2019-02-08T09:34:59.955Z,38.89
2019-02-08T09:35:59.935Z,38.73
2019-02-08T09:37:01.302Z,38.85
2019-02-08T09:37:59.486Z,38.73
2019-02-08T09:39:01.386Z,38.71
2019-02-08T09:39:59.514Z,38.07
2019-02-08T09:40:59.396Z,38.96
2019-02-08T09:41:59.551Z,38.34
2019-02-08T09:42:59.597Z,38.31
2019-02-08T09:43:59.788Z,38.05
2019-02-08T09:44:59.782Z,38.7
2019-02-08T09:46:00.010Z,38.14
2019-02-08T09:46:59.851Z,37.89
2019-02-08T09:47:59.754Z,38.07
2019-02-08T09:48:59.822Z,38.55
2019-02-08T09:49:59.732Z,38.93
2019-02-08T09:50:59.872Z,38.82
2019-02-08T09:51:59.521Z,39.4
2019-02-08T09:52:59.930Z,38.78
2019-02-08T09:53:59.655Z,39.18
2019-02-08T09:54:59.505Z,38.73
2019-02-08T09:56:00.118Z,38.7
2019-02-08T09:56:59.269Z,38.96
2019-02-08T09:57:59.692Z,38.74
2019-02-08T09:59:00.352Z,38.51
2019-02-08T09:59:59.946Z,38.39
2019-02-08T10:00:59.902Z,38.42
2019-02-08T10:01:59.890Z,38.27
2019-02-08T10:02:59.658Z,38.22
2019-02-08T10:04:00.132Z,38.18
2019-02-08T10:04:59.721Z,38.15
2019-02-08T10:05:59.744Z,38.16
2019-02-08T10:06:59.418Z,38.12
2019-02-08T10:07:59.947Z,38.08
2019-02-08T10:09:00.425Z,38.07
2019-02-08T10:09:59.660Z,38.07
2019-02-08T10:10:59.744Z,38.01
2019-02-08T10:12:01.175Z,38.04
2019-02-08T10:12:59.335Z,38
2019-02-08T10:13:59.972Z,37.93
2019-02-08T10:14:59.473Z,37.96
2019-02-08T10:15:59.937Z,37.97
2019-02-08T10:16:59.752Z,37.93
2019-02-08T10:17:59.726Z,37.98
2019-02-08T10:18:59.738Z,37.92
2019-02-08T10:20:00.497Z,37.9
2019-02-08T10:21:00.249Z,37.86
2019-02-08T10:21:59.508Z,37.85
2019-02-08T10:22:59.649Z,38.27
2019-02-08T10:23:59.776Z,38.26
2019-02-08T10:25:00.711Z,38.41
2019-02-08T10:26:05.698Z,38.46
2019-02-08T10:26:59.798Z,38.42
2019-02-08T10:27:59.993Z,38.46
2019-02-08T10:29:00.102Z,38.58
2019-02-08T10:30:00.034Z,38.5
2019-02-08T10:30:59.483Z,38.6
2019-02-08T10:32:00.030Z,38.64
2019-02-08T10:32:59.925Z,38.49
2019-02-08T10:33:59.445Z,38.51
2019-02-08T10:34:59.526Z,38.69
2019-02-08T10:36:01.296Z,38.61
2019-02-08T10:36:59.899Z,38.6
2019-02-08T10:37:59.851Z,38.56
2019-02-08T10:38:59.892Z,38.61
2019-02-08T10:39:59.717Z,38.7
2019-02-08T10:40:59.627Z,38.82
2019-02-08T10:41:59.789Z,38.94
2019-02-08T10:43:01.393Z,38.91
2019-02-08T10:43:59.423Z,38.96
2019-02-08T10:45:00.371Z,39.05
2019-02-08T10:46:00.019Z,39.67
2019-02-08T10:46:59.289Z,39.18
2019-02-08T10:47:59.981Z,39.11
2019-02-08T10:48:59.939Z,39.71
2019-02-08T10:49:59.682Z,39.36
2019-02-08T10:51:00.145Z,39.34
2019-02-08T10:51:59.790Z,38.68
2019-02-08T10:53:00.322Z,38.44
2019-02-08T10:53:59.773Z,39.63
2019-02-08T10:54:59.721Z,39.17
2019-02-08T10:56:00.048Z,39.44
2019-02-08T10:56:59.840Z,39.02
2019-02-08T10:57:59.448Z,38.84
2019-02-08T10:59:00.016Z,38.86
2019-02-08T10:59:59.515Z,38.97
2019-02-08T11:01:00.037Z,39.67
2019-02-08T11:01:59.508Z,39.46
2019-02-08T11:02:59.731Z,39.85
2019-02-08T11:03:59.645Z,40.24
2019-02-08T11:04:59.845Z,40.71
2019-02-08T11:05:59.770Z,40.19
2019-02-08T11:06:59.907Z,39.92
2019-02-08T11:08:00.488Z,40.21
2019-02-08T11:09:01.208Z,40.09
2019-02-08T11:10:00.242Z,39.33
2019-02-08T11:10:59.993Z,39.34
2019-02-08T11:11:59.870Z,39.23
2019-02-08T11:12:59.789Z,39.4
2019-02-08T11:13:59.829Z,39.32
2019-02-08T11:14:59.993Z,39.33
2019-02-08T11:16:00.027Z,39.35
2019-02-08T11:16:59.560Z,39.07
2019-02-08T11:18:00.381Z,39.36
2019-02-08T11:19:00.249Z,39.19
2019-02-08T11:20:00.219Z,39.13
2019-02-08T11:20:59.981Z,39.06
2019-02-08T11:21:59.882Z,39.42
2019-02-08T11:22:59.890Z,39
2019-02-08T11:23:59.891Z,39.15
2019-02-08T11:24:59.592Z,39.45
2019-02-08T11:26:01.284Z,39.49
2019-02-08T11:27:00.133Z,39.25
2019-02-08T11:27:59.894Z,39.13
2019-02-08T11:28:59.457Z,39.1
2019-02-08T11:30:00.053Z,38.96
2019-02-08T11:30:59.480Z,38.97
2019-02-08T11:31:59.821Z,39.52
2019-02-08T11:32:59.401Z,38.99
2019-02-08T11:33:59.648Z,38.93
2019-02-08T11:34:59.565Z,38.83
2019-02-08T11:35:59.536Z,38.7
2019-02-08T11:36:59.838Z,38.68
2019-02-08T11:37:59.607Z,38.71
2019-02-08T11:39:01.306Z,38.67
2019-02-08T11:39:59.399Z,38.59
2019-02-08T11:41:00.739Z,38.56
2019-02-08T11:41:59.777Z,38.56
2019-02-08T11:42:59.927Z,38.5
2019-02-08T11:43:59.767Z,38.47
2019-02-08T11:44:59.775Z,38.45
2019-02-08T11:45:59.544Z,38.46
2019-02-08T11:46:59.841Z,38.48
2019-02-08T11:47:59.240Z,38.45
2019-02-08T11:49:01.270Z,38.44
2019-02-08T11:49:59.555Z,38.46
2019-02-08T11:50:59.421Z,38.62
2019-02-08T11:52:00.201Z,38.65
2019-02-08T11:52:59.709Z,38.61
2019-02-08T11:53:59.841Z,38.73
2019-02-08T11:54:59.417Z,38.71
2019-02-08T11:55:59.744Z,38.68
2019-02-08T11:56:59.914Z,38.81
2019-02-08T11:57:59.866Z,38.8
2019-02-08T11:58:59.436Z,38.72
2019-02-08T11:59:59.586Z,38.66
2019-02-08T12:00:59.438Z,38.64
2019-02-08T12:02:01.201Z,38.68
2019-02-08T12:03:00.468Z,38.66
2019-02-08T12:04:01.239Z,38.62
2019-02-08T12:04:59.755Z,38.65
2019-02-08T12:06:00.103Z,38.58
2019-02-08T12:06:59.408Z,38.75
2019-02-08T12:08:00.126Z,38.52
2019-02-08T12:08:59.704Z,38.54
2019-02-08T12:10:01.271Z,38.66
2019-02-08T12:10:59.839Z,38.52
2019-02-08T12:12:01.157Z,38.57
2019-02-08T12:12:59.501Z,38.68
2019-02-08T12:13:59.833Z,38.63
2019-02-08T12:14:59.403Z,38.6
2019-02-08T12:15:59.501Z,38.56
2019-02-08T12:17:00.381Z,38.64
2019-02-08T12:17:59.719Z,38.47
2019-02-08T12:18:59.957Z,38.52
2019-02-08T12:19:59.773Z,38.44
2019-02-08T12:21:00.486Z,38.4
2019-02-08T12:21:59.940Z,38.46
2019-02-08T12:22:59.444Z,38.51
2019-02-08T12:24:00.808Z,38.59
2019-02-08T12:24:59.882Z,38.34
2019-02-08T12:25:59.742Z,38.4
2019-02-08T12:26:59.276Z,38.36
2019-02-08T12:28:00.219Z,38.35
2019-02-08T12:28:59.328Z,38.2
2019-02-08T12:29:59.711Z,38.18
2019-02-08T12:31:01.368Z,38.13
2019-02-08T12:31:59.676Z,38.09
2019-02-08T12:32:59.814Z,38.36
2019-02-08T12:33:59.985Z,38.29
2019-02-08T12:34:59.679Z,38.17
2019-02-08T12:36:00.312Z,38.17
2019-02-08T12:36:59.187Z,38.2
2019-02-08T12:37:59.421Z,38.13
2019-02-08T12:39:00.498Z,38.18
2019-02-08T12:40:01.191Z,38.22
2019-02-08T12:40:59.838Z,38.24
2019-02-08T12:41:59.640Z,38.35
2019-02-08T12:42:59.324Z,38.31
2019-02-08T12:43:59.714Z,38.27
2019-02-08T12:44:59.864Z,38.4
2019-02-08T12:45:59.309Z,38.37
2019-02-08T12:46:59.510Z,38.18
2019-02-08T12:47:59.877Z,38.51
2019-02-08T12:48:59.425Z,38.42
2019-02-08T12:49:59.619Z,38.33
2019-02-08T12:50:59.800Z,38.59
2019-02-08T12:51:59.814Z,38.5
2019-02-08T12:52:59.998Z,38.25
2019-02-08T12:54:01.212Z,38.13
2019-02-08T12:54:59.800Z,38.03
2019-02-08T12:55:59.373Z,37.98